createdAt,value
2018-08-04T00:00:05.314Z,27.22
2018-08-04T00:02:43.505Z,27.29
2018-08-04T00:05:20.602Z,27.27
2018-08-04T00:07:57.926Z,27.28
2018-08-04T00:10:35.757Z,27.32
2018-08-04T00:13:12.954Z,27.30
2018-08-04T00:15:50.083Z,27.31
2018-08-04T00:18:27.479Z,27.34
2018-08-04T00:21:05.291Z,27.37
2018-08-04T00:23:42.956Z,27.36
2018-08-04T00:26:21.048Z,27.34
2018-08-04T00:28:58.554Z,27.37
2018-08-04T00:34:30.399Z,27.42
2018-08-04T00:37:08.080Z,27.42
2018-08-04T00:39:46.491Z,27.43
2018-08-04T00:42:24.843Z,27.44
2018-08-04T00:45:02.650Z,27.47
2018-08-04T00:47:40.484Z,27.51
2018-08-04T00:50:17.181Z,27.55
2018-08-04T00:52:54.315Z,27.59
2018-08-04T00:55:32.297Z,27.64
2018-08-04T00:58:10.165Z,27.68
2018-08-04T01:00:47.355Z,27.71
2018-08-04T01:03:24.361Z,27.70
2018-08-04T01:06:03.123Z,27.74
2018-08-04T01:08:41.272Z,27.76
2018-08-04T01:11:19.884Z,27.81
2018-08-04T01:13:58.001Z,27.82
2018-08-04T01:16:34.113Z,27.91
2018-08-04T01:19:11.565Z,27.95
2018-08-04T01:21:49.354Z,27.97
2018-08-04T01:24:27.437Z,28.01
2018-08-04T01:27:04.793Z,28.00
2018-08-04T01:29:43.295Z,28.09
2018-08-04T01:32:21.687Z,28.13
2018-08-04T01:34:59.607Z,28.20
2018-08-04T01:37:36.996Z,28.28
2018-08-04T01:40:14.395Z,28.31
2018-08-04T01:42:52.055Z,28.31
2018-08-04T01:45:30.353Z,28.41
2018-08-04T01:48:07.595Z,28.53
2018-08-04T01:50:44.560Z,28.58
2018-08-04T01:53:21.838Z,28.69
2018-08-04T01:55:59.595Z,28.74
2018-08-04T01:58:36.956Z,28.83
2018-08-04T02:01:14.680Z,28.90
2018-08-04T02:03:52.230Z,28.90
2018-08-04T02:06:29.030Z,29.02
2018-08-04T02:09:07.719Z,29.18
2018-08-04T02:11:45.191Z,29.28
2018-08-04T02:14:22.715Z,29.33
2018-08-04T02:17:00.151Z,29.42
2018-08-04T02:19:37.673Z,29.54
2018-08-04T02:22:15.511Z,29.63
2018-08-04T02:24:53.353Z,29.62
2018-08-04T02:27:30.119Z,29.60
2018-08-04T02:30:07.627Z,29.62
2018-08-04T02:32:45.031Z,29.61
2018-08-04T02:35:21.637Z,29.72
2018-08-04T02:37:59.592Z,29.71
2018-08-04T02:40:36.711Z,29.77
2018-08-04T02:43:14.437Z,29.80
2018-08-04T02:45:52.026Z,29.83
2018-08-04T02:48:29.755Z,29.89
2018-08-04T02:51:07.163Z,29.97
2018-08-04T02:53:44.638Z,30.04
2018-08-04T02:56:22.394Z,30.16
2018-08-04T02:59:00.568Z,30.26
2018-08-04T03:01:38.767Z,30.25
2018-08-04T03:04:16.238Z,30.22
2018-08-04T03:06:53.563Z,30.20
2018-08-04T03:09:31.432Z,30.13
2018-08-04T03:12:08.528Z,30.11
2018-08-04T03:14:45.274Z,30.20
2018-08-04T03:17:23.161Z,30.27
2018-08-04T03:19:59.564Z,30.24
2018-08-04T03:22:36.719Z,30.28
2018-08-04T03:25:14.126Z,30.37
2018-08-04T03:27:51.598Z,30.38
2018-08-04T03:30:28.245Z,30.46
2018-08-04T03:33:05.766Z,30.56
2018-08-04T03:35:43.004Z,30.51
2018-08-04T03:38:20.440Z,30.61
2018-08-04T03:40:57.157Z,30.65
2018-08-04T03:43:34.279Z,30.78
2018-08-04T03:46:11.199Z,30.95
2018-08-04T03:48:47.851Z,31.02
2018-08-04T03:51:24.926Z,30.97
2018-08-04T03:54:02.204Z,30.99
2018-08-04T03:56:39.283Z,31.01
2018-08-04T03:59:15.676Z,31.04
2018-08-04T04:01:53.194Z,31.10
2018-08-04T04:04:30.388Z,31.18
2018-08-04T04:07:07.444Z,31.26
2018-08-04T04:09:44.955Z,31.12
2018-08-04T04:12:21.923Z,31.10
2018-08-04T04:14:59.351Z,31.26
2018-08-04T04:17:42.516Z,30.94
2018-08-04T04:20:21.604Z,31.11
2018-08-04T04:22:59.119Z,31.15
2018-08-04T04:25:36.636Z,31.25
2018-08-04T04:28:14.727Z,31.36
2018-08-04T04:30:51.344Z,31.31
2018-08-04T04:33:29.664Z,31.40
2018-08-04T04:36:06.348Z,31.45
2018-08-04T04:38:43.119Z,31.61
2018-08-04T04:41:21.842Z,31.75
2018-08-04T04:43:59.275Z,31.91
2018-08-04T04:46:39.696Z,32.01
2018-08-04T04:49:17.394Z,32.06
2018-08-04T04:51:54.911Z,32.04
2018-08-04T04:54:32.267Z,32.03
2018-08-04T04:57:09.918Z,31.66
2018-08-04T04:59:48.714Z,31.86
2018-08-04T05:02:25.635Z,31.84
2018-08-04T05:05:03.075Z,31.75
2018-08-04T05:07:40.720Z,31.90
2018-08-04T05:10:18.076Z,31.74
2018-08-04T05:12:55.597Z,31.69
2018-08-04T05:15:32.520Z,31.83
2018-08-04T05:18:10.553Z,31.72
2018-08-04T05:20:47.961Z,31.80
2018-08-04T05:23:24.724Z,31.87
2018-08-04T05:26:01.562Z,31.95
2018-08-04T05:28:39.194Z,32.01
2018-08-04T05:31:16.878Z,31.85
2018-08-04T05:33:54.041Z,31.70
2018-08-04T05:36:31.889Z,31.94
2018-08-04T05:39:10.837Z,32.06
2018-08-04T05:41:48.078Z,32.13
2018-08-04T05:44:25.274Z,32.17
2018-08-04T05:47:02.155Z,32.13
2018-08-04T05:49:40.367Z,32.04
2018-08-04T05:52:17.364Z,32.03
2018-08-04T05:54:54.638Z,32.06
2018-08-04T05:57:32.071Z,32.00
2018-08-04T06:00:13.209Z,32.06
2018-08-04T06:02:58.707Z,32.04
2018-08-04T06:05:37.752Z,31.98
2018-08-04T06:08:18.831Z,31.94
2018-08-04T06:10:55.965Z,31.95
2018-08-04T06:13:33.073Z,32.07
2018-08-04T06:16:10.432Z,32.16
2018-08-04T06:18:48.564Z,32.26
2018-08-04T06:21:25.109Z,32.32
2018-08-04T06:24:02.166Z,32.35
2018-08-04T06:26:39.362Z,32.42
2018-08-04T06:29:16.889Z,32.46
2018-08-04T06:34:30.006Z,32.54
2018-08-04T06:37:06.884Z,32.40
2018-08-04T06:39:43.953Z,32.48
2018-08-04T06:42:21.349Z,32.64
2018-08-04T06:44:58.555Z,32.71
2018-08-04T06:47:35.517Z,32.82
2018-08-04T06:50:13.443Z,32.57
2018-08-04T06:52:51.482Z,32.62
2018-08-04T06:55:28.284Z,32.66
2018-08-04T06:58:05.186Z,32.53
2018-08-04T07:00:46.865Z,32.61
2018-08-04T07:03:29.114Z,32.76
2018-08-04T07:06:06.318Z,32.86
2018-08-04T07:08:43.521Z,32.93
2018-08-04T07:11:21.043Z,32.90
2018-08-04T07:13:57.563Z,32.77
2018-08-04T07:16:34.480Z,32.73
2018-08-04T07:19:10.531Z,32.64
2018-08-04T07:21:47.835Z,32.73
2018-08-04T07:24:34.069Z,32.87
2018-08-04T07:27:14.558Z,32.86
2018-08-04T07:29:53.729Z,32.78
2018-08-04T07:32:32.164Z,32.78
2018-08-04T07:35:09.313Z,32.92
2018-08-04T07:37:47.001Z,32.78
2018-08-04T07:40:24.606Z,32.68
2018-08-04T07:43:03.275Z,32.83
2018-08-04T07:45:41.352Z,32.92
2018-08-04T07:48:24.161Z,33.02
2018-08-04T07:51:01.998Z,32.93
2018-08-04T07:53:39.411Z,32.95
2018-08-04T07:56:16.092Z,32.85
2018-08-04T07:58:54.283Z,32.94
2018-08-04T08:06:00.600Z,33.02
2018-08-04T08:08:45.835Z,33.05
2018-08-04T08:11:31.163Z,33.07
2018-08-04T08:14:08.042Z,33.05
2018-08-04T08:16:44.952Z,33.15
2018-08-04T08:19:21.610Z,33.17
2018-08-04T08:21:59.435Z,33.12
2018-08-04T08:24:36.476Z,33.20
2018-08-04T08:27:14.634Z,33.20
2018-08-04T08:29:55.035Z,33.27
2018-08-04T08:32:32.136Z,33.36
2018-08-04T08:35:09.716Z,33.49
2018-08-04T08:37:47.132Z,33.12
2018-08-04T08:40:24.247Z,33.02
2018-08-04T08:43:00.948Z,32.91
2018-08-04T08:45:38.693Z,33.10
2018-08-04T08:48:16.116Z,32.91
2018-08-04T08:53:40.142Z,33.09
2018-08-04T08:56:18.967Z,33.15
2018-08-04T08:58:56.418Z,33.06
2018-08-04T09:01:34.155Z,32.82
2018-08-04T09:04:16.712Z,32.81
2018-08-04T09:06:54.160Z,32.92
2018-08-04T09:09:31.153Z,32.81
2018-08-04T09:12:19.915Z,32.80
2018-08-04T09:15:12.620Z,32.90
2018-08-04T09:17:48.803Z,32.98
2018-08-04T09:20:27.002Z,33.05
2018-08-04T09:23:04.085Z,33.18
2018-08-04T09:25:41.910Z,33.23
2018-08-04T09:28:19.599Z,33.03
2018-08-04T09:30:56.447Z,32.87
2018-08-04T09:33:34.193Z,32.79
2018-08-04T09:36:12.352Z,32.98
2018-08-04T09:38:50.082Z,33.00
2018-08-04T09:41:30.064Z,32.94
2018-08-04T09:44:06.472Z,33.04
2018-08-04T09:46:43.911Z,33.12
2018-08-04T09:49:21.393Z,33.05
2018-08-04T09:51:58.601Z,33.09
2018-08-04T09:54:36.881Z,33.13
2018-08-04T09:57:14.965Z,33.04
2018-08-04T09:59:53.104Z,33.05
2018-08-04T10:02:31.030Z,33.02
2018-08-04T10:05:08.886Z,33.02
2018-08-04T10:14:15.596Z,32.94
2018-08-04T10:17:12.999Z,32.96
2018-08-04T10:19:48.628Z,32.92
2018-08-04T10:22:24.511Z,33.01
2018-08-04T10:25:03.664Z,33.04
2018-08-04T10:27:39.444Z,33.03
2018-08-04T10:30:15.700Z,33.05
2018-08-04T10:32:51.684Z,33.05
2018-08-04T10:35:27.393Z,32.85
2018-08-04T10:38:03.032Z,32.96
2018-08-04T10:40:38.832Z,32.96
2018-08-04T10:43:14.481Z,32.88
2018-08-04T10:45:50.748Z,32.81
2018-08-04T10:48:26.554Z,32.88
2018-08-04T10:51:02.690Z,32.96
2018-08-04T10:53:38.747Z,32.87
2018-08-04T10:56:15.834Z,32.92
2018-08-04T10:58:51.507Z,32.97
2018-08-04T11:01:27.891Z,32.94
2018-08-04T11:04:03.462Z,32.97
2018-08-04T11:06:39.194Z,32.94
2018-08-04T11:09:15.283Z,32.91
2018-08-04T11:11:51.082Z,32.84
2018-08-04T11:14:26.966Z,32.81
2018-08-04T11:17:02.718Z,32.85
2018-08-04T11:19:38.552Z,32.81
2018-08-04T11:22:14.466Z,32.77
2018-08-04T11:24:51.525Z,32.68
2018-08-04T11:27:27.844Z,32.69
2018-08-04T11:30:03.834Z,32.60
2018-08-04T11:32:40.398Z,32.64
2018-08-04T11:35:16.523Z,32.67
2018-08-04T11:37:53.112Z,32.62
2018-08-04T11:40:29.637Z,32.57
2018-08-04T11:43:06.826Z,32.58
2018-08-04T11:45:42.721Z,32.43
2018-08-04T11:48:19.330Z,32.43
2018-08-04T11:50:55.475Z,32.30
2018-08-04T11:53:31.931Z,32.27
2018-08-04T11:56:09.052Z,32.20
2018-08-04T11:58:45.963Z,32.19
2018-08-04T12:01:21.889Z,32.12
2018-08-04T12:03:58.202Z,32.07
2018-08-04T12:06:34.661Z,32.02
2018-08-04T12:09:14.910Z,31.93
2018-08-04T12:11:51.273Z,31.91
2018-08-04T12:14:28.152Z,31.88
2018-08-04T12:17:05.200Z,31.85
2018-08-04T12:19:42.333Z,31.80
2018-08-04T12:22:19.681Z,31.72
2018-08-04T12:24:57.197Z,31.68
2018-08-04T12:27:34.269Z,31.57
2018-08-04T12:30:12.481Z,31.56
2018-08-04T12:32:48.996Z,31.52
2018-08-04T12:35:26.239Z,31.45
2018-08-04T12:38:02.561Z,31.43
2018-08-04T12:40:39.571Z,31.38
2018-08-04T12:43:17.234Z,31.41
2018-08-04T12:45:54.474Z,31.42
2018-08-04T12:48:32.399Z,31.34
2018-08-04T12:51:08.303Z,31.31
2018-08-04T12:53:45.080Z,31.28
2018-08-04T12:56:21.078Z,31.24
2018-08-04T12:58:58.154Z,31.23
2018-08-04T13:01:35.285Z,31.20
2018-08-04T13:04:16.141Z,31.20
2018-08-04T13:06:53.065Z,31.20
2018-08-04T13:09:30.571Z,31.19
2018-08-04T13:12:07.757Z,31.26
2018-08-04T13:14:44.600Z,31.36
2018-08-04T13:17:20.553Z,31.12
2018-08-04T13:19:58.162Z,30.96
2018-08-04T13:22:35.864Z,30.75
2018-08-04T13:25:14.347Z,30.48
2018-08-04T13:27:59.124Z,30.47
2018-08-04T13:30:36.364Z,30.32
2018-08-04T13:33:13.998Z,30.10
2018-08-04T13:35:50.794Z,30.02
2018-08-04T13:38:27.327Z,29.90
2018-08-04T13:41:03.812Z,29.93
2018-08-04T13:43:40.582Z,29.84
2018-08-04T13:46:18.663Z,29.18
2018-08-04T13:48:56.200Z,28.75
2018-08-04T13:51:36.407Z,28.30
2018-08-04T13:54:24.533Z,27.97
2018-08-04T13:57:02.413Z,27.66
2018-08-04T14:00:04.772Z,27.71
2018-08-04T14:02:42.238Z,27.69
2018-08-04T14:05:18.638Z,27.56
2018-08-04T14:07:55.687Z,27.49
2018-08-04T14:10:34.407Z,27.43
2018-08-04T14:13:11.841Z,27.37
2018-08-04T14:15:49.526Z,27.34
2018-08-04T14:18:27.253Z,27.38
2018-08-04T14:21:04.406Z,27.36
2018-08-04T14:23:41.013Z,27.38
2018-08-04T14:26:17.673Z,27.34
2018-08-04T14:28:54.039Z,27.28
2018-08-04T14:31:31.002Z,27.25
2018-08-04T14:34:08.067Z,27.27
2018-08-04T14:36:44.715Z,27.28
2018-08-04T14:39:22.367Z,27.35
2018-08-04T14:41:59.151Z,27.43
2018-08-04T14:44:36.618Z,27.46
2018-08-04T14:47:21.751Z,27.48
2018-08-04T14:49:58.967Z,27.50
2018-08-04T14:52:34.825Z,27.54
2018-08-04T14:55:28.232Z,27.55
2018-08-04T14:58:23.704Z,27.61
2018-08-04T15:01:03.951Z,27.64
2018-08-04T15:03:45.623Z,27.67
2018-08-04T15:06:25.034Z,27.66
2018-08-04T15:09:12.481Z,27.69
2018-08-04T15:12:05.608Z,27.70
2018-08-04T15:14:43.385Z,27.67
2018-08-04T15:17:44.636Z,27.73
2018-08-04T15:20:48.349Z,27.73
2018-08-04T15:23:51.791Z,27.75
2018-08-04T15:26:55.516Z,27.72
2018-08-04T15:29:59.281Z,27.75
2018-08-04T15:32:43.251Z,27.78
2018-08-04T15:35:20.474Z,27.80
2018-08-04T15:38:05.610Z,27.77
2018-08-04T15:41:08.070Z,27.79
2018-08-04T15:43:47.664Z,27.79
2018-08-04T15:46:49.998Z,27.74
2018-08-04T15:49:28.530Z,27.76
2018-08-04T15:52:06.368Z,27.74
2018-08-04T15:54:59.911Z,27.73
2018-08-04T15:57:38.850Z,27.71
2018-08-04T16:00:37.394Z,27.70
2018-08-04T16:03:35.436Z,27.67
2018-08-04T16:06:39.625Z,27.65
2018-08-04T16:09:19.162Z,27.65
2018-08-04T16:11:57.980Z,27.65
2018-08-04T16:14:37.036Z,27.67
2018-08-04T16:17:14.402Z,27.65
2018-08-04T16:19:51.271Z,27.65
2018-08-04T16:22:28.954Z,27.67
2018-08-04T16:25:05.262Z,27.65
2018-08-04T16:27:42.193Z,27.65
2018-08-04T16:30:29.305Z,27.69
2018-08-04T16:33:12.126Z,27.69
2018-08-04T16:35:58.881Z,27.66
2018-08-04T16:38:37.917Z,27.70
2018-08-04T16:41:15.998Z,27.70
2018-08-04T16:43:54.720Z,27.69
2018-08-04T16:46:34.126Z,27.71
2018-08-04T16:49:11.275Z,27.71
2018-08-04T16:52:15.692Z,27.74
2018-08-04T16:54:58.522Z,27.75
2018-08-04T16:57:37.196Z,27.85
2018-08-04T17:00:15.621Z,27.84
2018-08-04T17:02:53.350Z,27.90
2018-08-04T17:05:31.757Z,27.88
2018-08-04T17:08:10.804Z,27.83
2018-08-04T17:10:49.520Z,27.78
2018-08-04T17:13:27.596Z,27.78
2018-08-04T17:16:05.684Z,27.76
2018-08-04T17:18:43.263Z,27.75
2018-08-04T17:21:20.884Z,27.71
2018-08-04T17:23:58.636Z,27.60
2018-08-04T17:26:36.716Z,27.60
2018-08-04T17:29:15.437Z,27.58
2018-08-04T17:31:54.050Z,27.49
2018-08-04T17:34:33.201Z,27.45
2018-08-04T17:37:10.750Z,27.43
2018-08-04T17:39:48.592Z,27.42
2018-08-04T17:42:41.197Z,27.47
2018-08-04T17:45:48.414Z,27.46
2018-08-04T17:48:52.661Z,27.44
2018-08-04T17:52:00.014Z,27.40
2018-08-04T17:55:01.285Z,27.39
2018-08-04T17:58:03.880Z,27.34
2018-08-04T18:00:43.786Z,27.34
2018-08-04T18:03:44.038Z,27.29
2018-08-04T18:06:46.560Z,27.41
2018-08-04T18:09:52.324Z,27.46
2018-08-04T18:12:57.038Z,27.52
2018-08-04T18:16:01.698Z,27.50
2018-08-04T18:18:53.626Z,27.62
2018-08-04T18:21:39.083Z,27.65
2018-08-04T18:24:17.270Z,27.70
2018-08-04T18:26:55.924Z,27.75
2018-08-04T18:29:33.785Z,27.66
2018-08-04T18:32:34.363Z,27.52
2018-08-04T18:35:30.006Z,27.47
2018-08-04T18:38:08.569Z,27.37
2018-08-04T18:40:47.688Z,27.35
2018-08-04T18:43:26.353Z,27.36
2018-08-04T18:46:06.314Z,27.43
2018-08-04T18:48:46.026Z,27.41
2018-08-04T18:51:24.124Z,27.43
2018-08-04T18:54:01.930Z,27.43
2018-08-04T18:56:40.553Z,27.43
2018-08-04T18:59:19.248Z,27.46
2018-08-04T19:01:57.931Z,27.42
2018-08-04T19:04:36.475Z,27.46
2018-08-04T19:07:14.479Z,27.43
2018-08-04T19:09:53.197Z,27.48
2018-08-04T19:12:32.237Z,27.46
2018-08-04T19:15:10.904Z,27.41
2018-08-04T19:17:48.391Z,27.42
2018-08-04T19:20:26.721Z,27.40
2018-08-04T19:23:04.246Z,27.43
2018-08-04T19:25:43.003Z,27.43
2018-08-04T19:28:21.752Z,27.40
2018-08-04T19:31:00.807Z,27.46
2018-08-04T19:33:40.044Z,27.48
2018-08-04T19:36:18.857Z,27.48
2018-08-04T19:38:56.522Z,27.51
2018-08-04T19:41:35.607Z,27.54
2018-08-04T19:44:14.723Z,27.50
2018-08-04T19:46:52.796Z,27.44
2018-08-04T19:49:31.113Z,27.35
2018-08-04T19:52:09.854Z,27.36
2018-08-04T19:54:48.922Z,27.34
2018-08-04T19:57:27.276Z,27.31
2018-08-04T20:00:05.711Z,27.29
2018-08-04T20:02:43.788Z,27.29
2018-08-04T20:05:22.799Z,27.32
2018-08-04T20:08:01.513Z,27.36
2018-08-04T20:10:39.566Z,27.33
2018-08-04T20:13:18.002Z,27.38
2018-08-04T20:15:56.218Z,27.31
2018-08-04T20:18:34.472Z,27.33
2018-08-04T20:21:12.684Z,27.31
2018-08-04T20:23:51.557Z,27.32
2018-08-04T20:26:29.448Z,27.34
2018-08-04T20:29:08.089Z,27.31
2018-08-04T20:31:46.720Z,27.28
2018-08-04T20:34:25.271Z,27.31
2018-08-04T20:37:03.929Z,27.30
2018-08-04T20:39:42.997Z,27.29
2018-08-04T20:42:21.373Z,27.30
2018-08-04T20:45:00.570Z,27.26
2018-08-04T20:47:39.774Z,27.25
2018-08-04T20:50:18.181Z,27.24
2018-08-04T20:52:56.300Z,27.19
2018-08-04T20:55:35.598Z,27.18
2018-08-04T20:58:13.635Z,27.19
2018-08-04T21:00:59.303Z,27.18
2018-08-04T21:03:38.402Z,27.17
2018-08-04T21:06:16.834Z,27.16
2018-08-04T21:08:56.395Z,27.17
2018-08-04T21:11:34.806Z,27.20
2018-08-04T21:14:12.875Z,27.23
2018-08-04T21:16:52.555Z,27.23
2018-08-04T21:19:31.913Z,27.21
2018-08-04T21:22:11.601Z,27.21
2018-08-04T21:24:49.870Z,27.19
2018-08-04T21:27:29.043Z,27.18
2018-08-04T21:30:07.433Z,27.17
2018-08-04T21:32:45.593Z,27.19
2018-08-04T21:35:24.561Z,27.19
2018-08-04T21:38:02.323Z,27.18
2018-08-04T21:40:40.729Z,27.20
2018-08-04T21:43:20.042Z,27.21
2018-08-04T21:45:58.230Z,27.21
2018-08-04T21:48:35.753Z,27.21
2018-08-04T21:51:14.043Z,27.21
2018-08-04T21:53:52.395Z,27.18
2018-08-04T21:56:30.799Z,27.21
2018-08-04T21:59:09.286Z,27.18
2018-08-04T22:01:50.387Z,27.21
2018-08-04T22:04:29.840Z,27.21
2018-08-04T22:08:14.557Z,27.23
2018-08-04T22:10:52.648Z,27.22
2018-08-04T22:13:31.351Z,27.20
2018-08-04T22:16:10.069Z,27.20
2018-08-04T22:18:48.711Z,27.17
2018-08-04T22:21:28.073Z,27.17
2018-08-04T22:24:06.798Z,27.18
2018-08-04T22:26:46.476Z,27.18
2018-08-04T22:29:25.635Z,27.18
2018-08-04T22:32:04.229Z,27.20
2018-08-04T22:34:43.724Z,27.20
2018-08-04T22:37:22.634Z,27.21
2018-08-04T22:40:00.159Z,27.19
2018-08-04T22:42:38.205Z,27.20
2018-08-04T22:45:55.513Z,27.18
2018-08-04T22:48:34.085Z,27.19
2018-08-04T22:51:12.723Z,27.18
2018-08-04T22:53:51.200Z,27.17
2018-08-04T22:56:30.564Z,27.18
2018-08-04T22:59:06.631Z,27.18
2018-08-04T23:01:45.169Z,27.19
2018-08-04T23:04:24.401Z,27.17
2018-08-04T23:07:03.362Z,27.14
2018-08-04T23:09:42.474Z,27.16
2018-08-04T23:12:19.910Z,27.14
2018-08-04T23:14:58.715Z,27.15
2018-08-04T23:17:37.993Z,27.17
2018-08-04T23:20:16.076Z,27.17
2018-08-04T23:22:54.557Z,27.20
2018-08-04T23:25:32.973Z,27.24
2018-08-04T23:28:12.240Z,27.28
2018-08-04T23:30:50.632Z,27.24
2018-08-04T23:33:30.564Z,27.23
2018-08-04T23:36:09.439Z,27.21
2018-08-04T23:38:48.150Z,27.21
2018-08-04T23:41:27.433Z,27.21
2018-08-04T23:44:06.723Z,27.22
2018-08-04T23:46:45.561Z,27.25
2018-08-04T23:49:23.366Z,27.30
2018-08-04T23:52:01.166Z,27.36
2018-08-04T23:54:39.805Z,27.35
2018-08-04T23:57:18.728Z,27.42
2018-08-04T23:59:57.284Z,27.37
